Terminal Aerodrome Forecast
Issued by NWS

Home | Current Version | Previous Version | Text Only | Print | Product List | Glossary On
Versions: 1 2 3 4 5 6 7 8 9 10 11 12 13 14
000
FTUS42 KFFC 231131
TAFRYY
TAF
KRYY 231131Z 2312/2412 14010KT 6SM -SHRA BR BKN008 BKN020
      TEMPO 2314/2316 VRB10G20KT 3SM TSRA BKN010CB
     FM231700 21012G22KT 6SM BR VCSH OVC020
     FM232000 25010KT P6SM SCT030
     FM232200 29008KT P6SM SCT250
     FM240500 29004KT P6SM SKC=

USA.gov is the U.S. government's official web portal to all federal, state and local government web resources and services.